Time;durP1;ratioP1;P1;durP2;ratioP2;P2;SDS_P1;SDS_P2;PMS_P1;PMS_P2;Temp;Humidity;BMP_temperature;BMP_pressure;BME280_temperature;BME280_humidity;BME280_pressure;Samples;Min_cycle;Max_cycle;Signal;HPM_P1;HPM_P2
2023/01/23 00:00:47;;;;;;;131.73;36.67;;;0.50;99.90;;;-0.82;100.00;98489.50;5051842;28;20397;-76
2023/01/23 00:03:13;;;;;;;111.68;32.33;;;0.50;99.90;;;-0.83;100.00;98486.06;5051596;28;20824;-76
2023/01/23 00:05:39;;;;;;;146.77;36.70;;;0.50;99.90;;;-0.81;100.00;98480.72;5065879;22;20472;-76
2023/01/23 00:08:05;;;;;;;148.23;36.78;;;0.60;99.90;;;-0.83;100.00;98482.69;5070230;28;20419;-75
2023/01/23 00:10:31;;;;;;;155.97;38.90;;;0.50;99.90;;;-0.84;100.00;98494.88;5071399;28;20478;-75
2023/01/23 00:12:58;;;;;;;141.77;36.45;;;0.50;99.90;;;-0.86;100.00;98483.81;5071350;28;20400;-76
2023/01/23 00:15:26;;;;;;;118.25;33.03;;;0.50;99.90;;;-0.86;100.00;98481.19;5070481;28;20415;-76
2023/01/23 00:17:52;;;;;;;129.98;32.55;;;0.50;99.90;;;-0.86;100.00;98480.38;5070217;28;20411;-75
2023/01/23 00:20:18;;;;;;;122.28;34.80;;;0.50;99.90;;;-0.89;100.00;98485.88;5071266;28;20414;-76
2023/01/23 00:22:44;;;;;;;183.05;40.97;;;0.50;99.90;;;-0.87;100.00;98489.13;5071256;28;20396;-75
2023/01/23 00:25:10;;;;;;;145.80;38.20;;;0.50;99.90;;;-0.88;100.00;98484.91;5071247;28;20406;-75
2023/01/23 00:27:36;;;;;;;139.50;38.17;;;0.50;99.90;;;-0.87;100.00;98486.53;5071204;28;20486;-75
2023/01/23 00:30:05;;;;;;;129.33;34.47;;;0.50;99.90;;;-0.87;100.00;98486.53;5071180;28;20399;-75
2023/01/23 00:32:30;;;;;;;174.35;40.40;;;0.50;99.90;;;-0.88;100.00;98487.50;5071209;28;20406;-75
2023/01/23 00:34:56;;;;;;;139.98;38.60;;;0.50;99.90;;;-0.87;100.00;98494.34;5070712;28;20407;-76
2023/01/23 00:37:22;;;;;;;148.13;38.90;;;0.50;99.90;;;-0.87;100.00;98482.16;5070842;28;20431;-75
2023/01/23 00:39:49;;;;;;;131.57;35.92;;;0.50;99.90;;;-0.84;100.00;98486.25;5070899;28;20411;-75
2023/01/23 00:42:15;;;;;;;134.70;35.65;;;0.50;99.90;;;-0.86;100.00;98481.19;5070910;28;20962;-75
2023/01/23 00:44:41;;;;;;;143.57;36.35;;;0.50;99.90;;;-0.85;100.00;98477.63;5070948;28;20407;-75
2023/01/23 00:47:09;;;;;;;122.22;32.55;;;0.50;99.90;;;-0.86;100.00;98477.78;5071068;28;20545;-75
2023/01/23 00:49:34;;;;;;;129.18;34.55;;;0.50;99.90;;;-0.86;100.00;98485.56;5071107;28;20439;-75
2023/01/23 00:52:00;;;;;;;127.13;33.22;;;0.50;99.90;;;-0.87;100.00;98482.16;5071002;28;20483;-75
2023/01/23 00:54:26;;;;;;;131.87;36.07;;;0.50;99.90;;;-0.86;100.00;98483.81;5069329;28;20407;-76
2023/01/23 00:56:52;;;;;;;145.88;39.78;;;0.50;99.90;;;-0.87;100.00;98483.94;5070828;28;20416;-76
2023/01/23 00:59:18;;;;;;;127.07;37.50;;;0.50;99.90;;;-0.90;100.00;98477.25;5070721;28;20514;-75
2023/01/23 01:01:44;;;;;;;154.50;39.92;;;0.50;99.90;;;-0.93;100.00;98476.75;5070569;28;20763;-75
2023/01/23 01:04:11;;;;;;;122.38;34.28;;;0.40;99.90;;;-0.92;100.00;98478.41;5070258;28;20778;-75
2023/01/23 01:06:37;;;;;;;137.93;35.17;;;0.40;99.90;;;-0.92;100.00;98483.59;5070145;28;20411;-75
2023/01/23 01:09:04;;;;;;;115.63;32.67;;;0.40;99.90;;;-0.92;100.00;98484.41;5070390;28;20462;-75
2023/01/23 01:11:30;;;;;;;128.30;34.08;;;0.50;99.90;;;-0.92;100.00;98492.22;5070512;28;20756;-76
2023/01/23 01:13:56;;;;;;;119.70;32.47;;;0.50;99.90;;;-0.91;100.00;98493.03;5070288;28;20792;-76
2023/01/23 01:16:25;;;;;;;148.87;35.63;;;0.50;99.90;;;-0.92;100.00;98494.81;5070317;28;20419;-76
2023/01/23 01:18:51;;;;;;;108.15;32.67;;;0.50;99.90;;;-0.89;100.00;98499.69;5070372;28;20819;-75
2023/01/23 01:21:18;;;;;;;169.13;39.15;;;0.50;99.90;;;-0.89;100.00;98504.88;5070271;28;20403;-75
2023/01/23 01:23:45;;;;;;;128.13;33.63;;;0.50;99.90;;;-0.89;100.00;98502.28;5070175;28;20404;-75
2023/01/23 01:26:11;;;;;;;161.30;36.13;;;0.50;99.90;;;-0.88;100.00;98511.72;5070228;28;20407;-76
2023/01/23 01:28:39;;;;;;;151.32;35.90;;;0.50;99.90;;;-0.88;100.00;98514.31;5070174;28;20471;-76
2023/01/23 01:31:08;;;;;;;138.48;33.80;;;0.50;99.90;;;-0.87;100.00;98510.75;5070135;28;20402;-76
2023/01/23 01:33:36;;;;;;;125.67;33.60;;;0.50;99.90;;;-0.87;100.00;98518.53;5069994;28;20410;-75
2023/01/23 01:36:02;;;;;;;113.53;30.67;;;0.50;99.90;;;-0.86;100.00;98515.00;5069855;28;20420;-75
2023/01/23 01:38:29;;;;;;;118.72;31.17;;;0.50;99.90;;;-0.85;100.00;98519.22;5069046;28;20415;-76
2023/01/23 01:40:56;;;;;;;132.15;32.45;;;0.50;99.90;;;-0.84;100.00;98525.25;5070070;28;20487;-75
2023/01/23 01:43:24;;;;;;;105.45;29.33;;;0.50;99.90;;;-0.84;100.00;98512.25;5070014;28;20987;-75
2023/01/23 01:46:15;;;;;;;121.72;30.95;;;0.50;99.90;;;-0.83;100.00;98524.28;5069755;28;20442;-75
2023/01/23 01:48:50;;;;;;;132.05;33.00;;;0.50;99.90;;;-0.84;100.00;98522.63;5069211;28;20400;-75
2023/01/23 01:51:23;;;;;;;107.50;30.17;;;0.50;99.90;;;-0.84;100.00;98514.84;5069855;28;20422;-75
2023/01/23 01:54:01;;;;;;;114.40;30.15;;;0.50;99.90;;;-0.84;100.00;98515.66;5069780;28;20402;-75
2023/01/23 01:56:29;;;;;;;134.50;32.30;;;0.50;99.90;;;-0.84;100.00;98520.84;5069822;28;20587;-75
2023/01/23 01:58:56;;;;;;;125.40;31.45;;;0.50;99.90;;;-0.84;100.00;98528.66;5069905;28;20391;-75
2023/01/23 02:01:22;;;;;;;109.90;30.38;;;0.50;99.90;;;-0.83;100.00;98519.88;5070057;28;20749;-75
2023/01/23 02:03:49;;;;;;;143.50;33.78;;;0.50;99.90;;;-0.83;100.00;98525.06;5069621;28;20400;-75
2023/01/23 02:06:15;;;;;;;111.32;30.35;;;0.50;99.90;;;-0.82;100.00;98531.06;5069632;28;20399;-75
2023/01/23 02:08:52;;;;;;;108.47;29.50;;;0.50;99.90;;;-0.82;100.00;98531.91;5069819;28;20754;-75
2023/01/23 02:11:18;;;;;;;120.05;30.42;;;0.50;99.90;;;-0.81;100.00;98537.91;5069899;28;20815;-75
2023/01/23 02:13:44;;;;;;;119.32;31.05;;;0.50;99.90;;;-0.82;100.00;98536.28;5069652;28;20435;-76
2023/01/23 02:16:13;;;;;;;96.38;28.48;;;0.50;99.90;;;-0.81;100.00;98538.72;5069640;28;20412;-75
2023/01/23 02:18:46;;;;;;;120.50;32.38;;;0.50;99.90;;;-0.82;100.00;98536.28;5069684;28;20396;-75
2023/01/23 02:21:15;;;;;;;135.98;33.42;;;0.50;99.90;;;-0.82;100.00;98531.06;5069713;28;20490;-75
2023/01/23 02:23:55;;;;;;;134.00;34.35;;;0.50;99.90;;;-0.83;100.00;98534.69;5069683;28;20431;-75
2023/01/23 02:26:28;;;;;;;108.00;30.02;;;0.50;99.90;;;-0.83;100.00;98529.47;5069683;28;20454;-76
2023/01/23 02:28:54;;;;;;;131.00;31.30;;;0.50;99.90;;;-0.82;100.00;98533.69;5069820;28;20934;-76
2023/01/23 02:31:22;;;;;;;145.20;33.05;;;0.50;99.90;;;-0.82;100.00;98531.06;5069605;28;20406;-75
2023/01/23 02:33:51;;;;;;;134.13;33.47;;;0.50;99.90;;;-0.82;100.00;98531.06;5069382;28;20457;-75
2023/01/23 02:36:20;;;;;;;146.68;34.35;;;0.50;99.90;;;-0.82;100.00;98523.28;5069324;28;20415;-75
2023/01/23 02:39:06;;;;;;;148.90;33.85;;;0.50;99.90;;;-0.83;100.00;98516.47;5070763;28;20510;-76
2023/01/23 02:41:36;;;;;;;111.80;29.20;;;0.50;99.90;;;-0.81;100.00;98519.72;5073263;28;20427;-75
2023/01/23 02:44:08;;;;;;;149.63;34.90;;;0.50;99.90;;;-0.81;100.00;98522.31;5073243;28;20411;-74
2023/01/23 02:46:34;;;;;;;114.88;31.60;;;0.50;99.90;;;-0.82;100.00;98521.50;5072934;28;20460;-76
2023/01/23 02:49:00;;;;;;;131.35;33.05;;;0.50;99.90;;;-0.82;100.00;98518.09;5073264;28;20448;-76
2023/01/23 02:51:25;;;;;;;120.88;31.88;;;0.50;99.90;;;-0.81;100.00;98517.13;5072997;28;20399;-76
2023/01/23 02:53:51;;;;;;;124.45;31.95;;;0.50;99.90;;;-0.81;100.00;98519.72;5071596;28;20490;-76
2023/01/23 02:56:18;;;;;;;106.57;30.55;;;0.50;99.90;;;-0.80;100.00;98514.38;5072828;28;20445;-75
2023/01/23 03:01:32;;;;;;;145.20;33.92;;;0.60;99.90;;;-0.79;100.00;98525.59;5072856;28;20445;-75
2023/01/23 03:04:03;;;;;;;131.33;32.17;;;0.60;99.90;;;-0.80;100.00;98526.56;5072421;28;20418;-75
2023/01/23 03:06:34;;;;;;;137.27;34.90;;;0.60;99.90;;;-0.79;100.00;98530.78;5071316;28;20772;-76
2023/01/23 03:09:04;;;;;;;137.38;33.88;;;0.60;99.90;;;-0.80;100.00;98526.56;5072726;28;20403;-75
2023/01/23 03:11:31;;;;;;;143.32;33.58;;;0.60;99.90;;;-0.80;100.00;98529.16;5072697;28;20434;-76
2023/01/23 03:13:58;;;;;;;138.30;33.97;;;0.60;99.90;;;-0.79;100.00;98525.59;5072479;28;20494;-76
2023/01/23 03:16:24;;;;;;;147.88;35.97;;;0.60;99.90;;;-0.81;100.00;98532.72;5072345;28;20422;-75
2023/01/23 03:18:50;;;;;;;153.95;35.65;;;0.50;99.90;;;-0.81;100.00;98523.13;5072259;28;20399;-75
2023/01/23 03:21:16;;;;;;;155.48;35.08;;;0.50;99.90;;;-0.80;100.00;98523.94;5072335;28;20410;-75
2023/01/23 03:23:45;;;;;;;104.68;30.58;;;0.60;99.90;;;-0.80;100.00;98531.75;5072315;28;21022;-76
2023/01/23 03:26:11;;;;;;;146.30;34.55;;;0.60;99.90;;;-0.81;100.00;98523.13;5072347;28;20416;-76
2023/01/23 03:31:23;;;;;;;123.53;31.38;;;0.50;99.90;;;-0.80;100.00;98531.75;5072413;28;20537;-75
2023/01/23 03:33:49;;;;;;;156.10;36.63;;;0.60;99.90;;;-0.80;100.00;98529.16;5072095;28;20403;-75
2023/01/23 03:36:15;;;;;;;171.17;39.87;;;0.60;99.90;;;-0.80;100.00;98518.75;5072157;28;20526;-76
2023/01/23 03:41:23;;;;;;;136.25;34.38;;;0.50;99.90;;;-0.82;100.00;98518.91;5072250;28;20432;-75
2023/01/23 03:41:30;;;;;;;172.93;37.08;;;0.50;99.90;;;-0.82;100.00;98525.88;5071963;28;20415;-75
2023/01/23 03:43:56;;;;;;;139.70;33.42;;;0.50;99.90;;;-0.81;100.00;98517.94;5071887;28;20424;-75
2023/01/23 03:46:23;;;;;;;129.43;32.55;;;0.60;99.90;;;-0.80;100.00;98513.56;5071849;28;20398;-76
2023/01/23 03:48:49;;;;;;;142.43;33.40;;;0.60;99.90;;;-0.80;100.00;98514.38;5071988;28;20880;-76
2023/01/23 03:51:15;;;;;;;160.80;35.55;;;0.60;99.90;;;-0.80;100.00;98513.56;5070968;28;20462;-75
2023/01/23 03:53:41;;;;;;;140.67;37.37;;;0.60;99.90;;;-0.80;100.00;98523.94;5071792;28;20411;-75
2023/01/23 03:56:07;;;;;;;170.00;36.38;;;0.60;99.90;;;-0.80;100.00;98521.34;5071562;28;20415;-75
2023/01/23 03:58:33;;;;;;;146.68;37.17;;;0.60;99.90;;;-0.79;100.00;98523.00;5070469;28;20419;-76
2023/01/23 04:01:02;;;;;;;154.37;35.70;;;0.60;99.90;;;-0.79;100.00;98520.41;5071612;28;20396;-75
2023/01/23 04:03:29;;;;;;;157.20;39.73;;;0.60;99.90;;;-0.81;100.00;98517.94;5071672;28;20593;-75
2023/01/23 04:05:56;;;;;;;177.10;43.15;;;0.60;99.90;;;-0.81;100.00;98522.31;5069930;28;20396;-75
2023/01/23 04:08:22;;;;;;;155.07;38.13;;;0.60;99.90;;;-0.82;100.00;98526.69;5070349;28;20893;-76
2023/01/23 04:10:48;;;;;;;162.15;36.85;;;0.50;99.90;;;-0.82;100.00;98531.06;5071391;28;20407;-75
2023/01/23 04:13:14;;;;;;;157.35;37.17;;;0.50;99.90;;;-0.82;100.00;98524.09;5071450;28;20400;-75
2023/01/23 04:15:40;;;;;;;145.90;37.83;;;0.50;99.90;;;-0.84;100.00;98526.06;5071054;28;20904;-76
2023/01/23 04:18:05;;;;;;;163.50;37.13;;;0.50;99.90;;;-0.83;100.00;98538.06;5071330;28;20510;-75
2023/01/23 04:20:33;;;;;;;173.32;42.50;;;0.50;99.90;;;-0.83;100.00;98545.06;5070982;28;20410;-75
2023/01/23 04:22:59;;;;;;;165.85;37.35;;;0.50;99.90;;;-0.83;100.00;98548.47;5071122;28;20396;-75
2023/01/23 04:25:25;;;;;;;167.13;37.20;;;0.50;99.90;;;-0.83;100.00;98545.06;5071011;28;20929;-75
2023/01/23 04:27:50;;;;;;;152.90;36.33;;;0.50;99.90;;;-0.82;100.00;98551.88;5071278;28;20896;-74
2023/01/23 04:30:17;;;;;;;138.57;34.03;;;0.50;99.90;;;-0.81;100.00;98563.91;5071091;28;20460;-75
2023/01/23 04:32:43;;;;;;;178.63;39.15;;;0.50;99.90;;;-0.81;100.00;98563.91;5071054;28;20423;-75
2023/01/23 04:35:09;;;;;;;153.43;36.53;;;0.50;99.90;;;-0.81;100.00;98559.53;5070773;28;20878;-75
2023/01/23 04:37:36;;;;;;;131.13;33.83;;;0.60;99.90;;;-0.81;100.00;98554.31;5069541;28;20419;-75
2023/01/23 04:40:02;;;;;;;152.07;37.63;;;0.50;99.90;;;-0.80;100.00;98557.75;5070855;28;20408;-75
2023/01/23 04:42:28;;;;;;;160.32;36.20;;;0.50;99.90;;;-0.82;100.00;98560.50;5070931;28;20403;-75
2023/01/23 04:44:54;;;;;;;214.07;42.05;;;0.60;99.90;;;-0.81;100.00;98548.31;5070523;28;20569;-75
2023/01/23 04:47:20;;;;;;;138.67;33.97;;;0.60;99.90;;;-0.80;100.00;98563.75;5070587;28;20428;-75
2023/01/23 04:49:46;;;;;;;164.82;37.88;;;0.50;99.90;;;-0.81;100.00;98564.72;5070844;28;20490;-75
2023/01/23 04:52:12;;;;;;;173.68;39.63;;;0.50;99.90;;;-0.80;100.00;98552.53;5070906;28;20403;-75
2023/01/23 04:54:39;;;;;;;186.95;38.70;;;0.50;99.90;;;-0.81;100.00;98558.72;5070475;28;20917;-75
2023/01/23 04:57:05;;;;;;;169.50;38.90;;;0.50;99.90;;;-0.80;100.00;98568.16;5070452;28;20416;-76
2023/01/23 04:59:31;;;;;;;149.17;35.40;;;0.60;99.90;;;-0.82;100.00;98567.47;5070659;28;20445;-75
2023/01/23 05:01:57;;;;;;;188.38;41.50;;;0.50;99.90;;;-0.83;100.00;98566.66;5070296;28;20545;-76
2023/01/23 05:04:23;;;;;;;136.93;34.15;;;0.50;99.90;;;-0.83;100.00;98577.03;5070307;28;20396;-76
2023/01/23 05:06:49;;;;;;;149.77;34.80;;;0.50;99.90;;;-0.83;100.00;98571.06;5070362;28;20399;-76
2023/01/23 05:09:14;;;;;;;167.93;38.25;;;0.50;99.90;;;-0.83;100.00;98576.25;5070582;28;20965;-76
2023/01/23 05:11:42;;;;;;;156.00;36.83;;;0.50;99.90;;;-0.82;100.00;98572.66;5070424;28;20494;-76
2023/01/23 05:14:08;;;;;;;169.40;38.83;;;0.50;99.90;;;-0.81;100.00;98572.53;5070142;28;20404;-76
2023/01/23 05:16:34;;;;;;;161.88;37.45;;;0.60;99.90;;;-0.80;100.00;98573.34;5068989;28;20419;-76
2023/01/23 05:19:00;;;;;;;142.82;34.67;;;0.50;99.90;;;-0.80;100.00;98573.34;5070008;28;20494;-77
2023/01/23 05:21:26;;;;;;;151.48;35.20;;;0.60;99.90;;;-0.80;100.00;98574.16;5070374;28;20415;-75
2023/01/23 05:23:52;;;;;;;145.03;34.03;;;0.60;99.90;;;-0.80;100.00;98579.34;5070068;28;20411;-76
2023/01/23 05:26:17;;;;;;;184.93;42.90;;;0.60;99.90;;;-0.79;100.00;98577.56;5064570;28;20704;-75
2023/01/23 05:28:45;;;;;;;169.88;42.03;;;0.60;99.90;;;-0.80;100.00;98576.75;5065448;28;20773;-75
2023/01/23 05:31:11;;;;;;;184.40;40.17;;;0.60;99.90;;;-0.80;100.00;98581.16;5056263;28;20481;-75
2023/01/23 05:33:39;;;;;;;184.88;40.60;;;0.60;99.90;;;-0.81;100.00;98572.53;5069258;28;20403;-76
2023/01/23 05:36:06;;;;;;;150.50;36.20;;;0.50;99.90;;;-0.80;100.00;98576.75;5069943;28;20928;-75
2023/01/23 05:38:32;;;;;;;142.45;33.83;;;0.60;99.90;;;-0.80;100.00;98568.97;5070226;28;20396;-76
2023/01/23 05:40:58;;;;;;;110.03;30.13;;;0.60;99.90;;;-0.77;100.00;98574.84;5070024;28;20494;-75
2023/01/23 05:43:24;;;;;;;149.25;35.63;;;0.60;99.90;;;-0.77;100.00;98567.03;5070110;28;20400;-76
2023/01/23 05:45:51;;;;;;;168.33;41.67;;;0.60;99.90;;;-0.80;100.00;98575.94;5087290;28;20822;-76
2023/01/23 05:48:17;;;;;;;182.73;40.60;;;0.60;99.90;;;-0.81;100.00;98577.72;5060793;28;20970;-77
2023/01/23 05:50:43;;;;;;;198.75;41.20;;;0.50;99.90;;;-0.81;100.00;98580.31;5058544;28;20542;-79
2023/01/23 05:53:09;;;;;;;195.05;39.03;;;0.50;99.90;;;-0.81;100.00;98577.72;5056170;28;20502;-77
2023/01/23 05:55:36;;;;;;;163.73;36.97;;;0.60;99.90;;;-0.80;100.00;98575.94;5049536;28;20425;-80
2023/01/23 05:58:02;;;;;;;151.35;35.15;;;0.60;99.90;;;-0.79;100.00;98577.56;5049925;28;20413;-81
2023/01/23 06:00:28;;;;;;;164.43;38.20;;;0.50;99.90;;;-0.81;100.00;98580.31;5049881;28;20464;-75
2023/01/23 06:02:56;;;;;;;179.02;38.53;;;0.50;99.90;;;-0.83;100.00;98577.03;5049969;28;20405;-76
2023/01/23 06:05:22;;;;;;;167.00;37.50;;;0.50;99.90;;;-0.81;100.00;98593.31;5049541;28;20871;-76
2023/01/23 06:07:48;;;;;;;174.00;37.70;;;0.50;99.90;;;-0.87;100.00;98582.72;5133416;22;20452;-80
2023/01/23 06:10:14;;;;;;;147.55;34.92;;;0.60;99.90;;;-0.80;100.00;98589.75;5055414;28;20413;-81
2023/01/23 06:12:40;;;;;;;156.02;34.70;;;0.50;99.90;;;-0.80;100.00;98584.56;5051348;28;20460;-80
2023/01/23 06:15:07;;;;;;;151.65;35.72;;;0.60;99.90;;;-0.79;100.00;98591.41;5057117;28;20397;-81
2023/01/23 06:17:33;;;;;;;156.00;36.50;;;0.60;99.90;;;-0.78;100.00;98602.59;5054297;28;20833;-80
2023/01/23 06:20:00;;;;;;;163.15;36.63;;;0.60;99.90;;;-0.80;100.00;98597.56;5055924;28;20433;-78
2023/01/23 06:22:26;;;;;;;181.05;36.42;;;0.60;99.90;;;-0.82;100.00;98596.88;5058769;28;20409;-81
2023/01/23 06:24:52;;;;;;;155.33;38.30;;;0.60;99.90;;;-0.80;100.00;98599.34;5057136;28;20431;-80
2023/01/23 06:27:18;;;;;;;159.40;36.88;;;0.60;99.90;;;-0.81;100.00;98606.31;5057873;28;20408;-76
2023/01/23 06:29:44;;;;;;;146.98;35.65;;;0.50;99.90;;;-0.80;100.00;98604.53;5057295;28;20405;-81
2023/01/23 06:32:10;;;;;;;153.77;36.85;;;0.60;99.90;;;-0.81;100.00;98602.91;5053746;28;20986;-83
2023/01/23 06:34:35;;;;;;;168.73;37.88;;;0.60;99.90;;;-0.83;100.00;98605.63;5052051;28;20506;-83
2023/01/23 06:37:03;;;;;;;164.38;36.40;;;0.50;99.90;;;-0.84;100.00;98606.63;5054422;28;20441;-83
2023/01/23 06:39:29;;;;;;;198.65;39.70;;;0.50;99.90;;;-0.84;100.00;98618.81;5053118;28;20413;-83
2023/01/23 06:41:55;;;;;;;170.65;36.90;;;0.50;99.90;;;-0.85;100.00;98625.78;5053158;28;20498;-83
2023/01/23 06:44:21;;;;;;;159.73;36.77;;;0.50;99.90;;;-0.85;100.00;98633.59;5052883;28;20393;-80
2023/01/23 06:46:46;;;;;;;162.02;37.60;;;0.50;99.90;;;-0.84;100.00;98639.59;5052906;28;20458;-81
2023/01/23 06:49:13;;;;;;;161.73;37.50;;;0.50;99.90;;;-0.85;100.00;98641.38;5053192;28;20406;-81
2023/01/23 06:51:39;;;;;;;160.05;36.10;;;0.50;99.90;;;-0.84;100.00;98637.00;5053369;28;20420;-78
2023/01/23 06:54:06;;;;;;;180.10;38.83;;;0.50;99.90;;;-0.85;100.00;98636.19;5051989;28;20409;-78
2023/01/23 06:56:32;;;;;;;168.27;37.53;;;0.50;99.90;;;-0.84;100.00;98647.41;5056785;28;20423;-81
2023/01/23 06:58:58;;;;;;;165.73;36.28;;;0.50;99.90;;;-0.86;100.00;98644.13;5053917;28;20488;-81
2023/01/23 07:01:25;;;;;;;131.00;33.77;;;0.50;99.90;;;-0.84;100.00;98650.00;5053164;28;20440;-82
2023/01/23 07:03:51;;;;;;;170.82;37.72;;;0.50;99.90;;;-0.85;100.00;98650.97;5043582;28;20446;-81
2023/01/23 07:06:17;;;;;;;172.60;38.73;;;0.50;99.90;;;-0.87;100.00;98645.91;5052713;28;20412;-81
2023/01/23 07:08:43;;;;;;;166.95;37.28;;;0.50;99.90;;;-0.86;100.00;98650.16;5053650;28;20431;-83
2023/01/23 07:11:11;;;;;;;184.50;37.28;;;0.50;99.90;;;-0.87;100.00;98655.47;5050887;28;20422;-80
2023/01/23 07:13:37;;;;;;;191.82;39.53;;;0.50;99.90;;;-0.86;100.00;98660.53;5048319;28;20425;-80
2023/01/23 07:16:04;;;;;;;197.30;38.90;;;0.50;99.90;;;-0.84;100.00;98663.81;5050344;28;20410;-80
2023/01/23 07:18:31;;;;;;;157.07;35.60;;;0.50;99.90;;;-0.82;100.00;98666.25;5050597;28;20458;-80
2023/01/23 07:20:58;;;;;;;164.10;37.20;;;0.50;99.90;;;-0.81;100.00;98673.91;5052337;28;20413;-83
2023/01/23 07:23:24;;;;;;;186.95;40.65;;;0.50;99.90;;;-0.81;100.00;98667.88;5045830;28;20406;-78
2023/01/23 07:25:50;;;;;;;191.25;39.60;;;0.60;99.90;;;-0.81;100.00;98667.88;5050936;28;20432;-81
2023/01/23 07:28:17;;;;;;;179.57;39.83;;;0.60;99.90;;;-0.82;100.00;98676.63;5052745;28;20890;-80
2023/01/23 07:30:43;;;;;;;181.52;37.90;;;0.50;99.90;;;-0.79;100.00;98673.75;5054288;28;20401;-83
2023/01/23 07:33:10;;;;;;;188.43;41.75;;;0.60;99.90;;;-0.77;100.00;98678.81;5051563;28;20767;-79
2023/01/23 07:35:37;;;;;;;174.52;37.78;;;0.60;99.90;;;-0.80;100.00;98678.13;5051440;28;20940;-81
2023/01/23 07:38:03;;;;;;;173.13;36.53;;;0.60;99.90;;;-0.78;100.00;98680.59;5049024;28;20847;-83
2023/01/23 07:40:29;;;;;;;182.32;40.90;;;0.60;99.90;;;-0.78;100.00;98678.00;5045121;28;20504;-79
2023/01/23 07:42:56;;;;;;;185.32;40.25;;;0.60;99.90;;;-0.77;100.00;98684.00;5048335;28;20913;-81
2023/01/23 07:45:24;;;;;;;178.80;37.95;;;0.60;99.90;;;-0.76;100.00;98680.47;5050689;28;20488;-81
2023/01/23 07:47:50;;;;;;;164.88;37.05;;;0.60;99.90;;;-0.75;100.00;98672.50;5051447;28;20397;-81
2023/01/23 07:50:16;;;;;;;212.68;41.45;;;0.60;99.90;;;-0.74;100.00;98676.72;5047508;28;21052;-82
2023/01/23 07:52:42;;;;;;;162.85;38.63;;;0.60;99.90;;;-0.70;100.00;98674.66;5051303;28;20902;-81
2023/01/23 07:55:09;;;;;;;192.75;40.97;;;0.60;99.90;;;-0.70;100.00;98678.06;5051202;28;20409;-79
2023/01/23 07:57:34;;;;;;;184.90;36.35;;;0.60;99.90;;;-0.69;100.00;98684.09;5050888;28;20740;-81
2023/01/23 08:00:01;;;;;;;180.07;37.07;;;0.60;99.90;;;-0.68;100.00;98681.34;5049273;28;20427;-81
2023/01/23 08:02:28;;;;;;;154.82;34.75;;;0.70;99.90;;;-0.65;100.00;98683.63;5050561;28;20478;-82
2023/01/23 08:04:54;;;;;;;202.45;38.25;;;0.70;99.90;;;-0.66;100.00;98671.59;5055304;28;20459;-79
2023/01/23 08:07:20;;;;;;;187.73;38.63;;;0.70;99.90;;;-0.64;100.00;98674.06;5048806;28;20437;-81
2023/01/23 08:09:46;;;;;;;188.00;39.25;;;0.70;99.90;;;-0.63;100.00;98673.09;5053085;28;20494;-83
2023/01/23 08:12:11;;;;;;;160.10;36.05;;;0.70;99.90;;;-0.63;100.00;98673.91;5040413;28;20872;-82
2023/01/23 08:14:39;;;;;;;208.67;41.90;;;0.70;99.90;;;-0.65;100.00;98675.03;5045504;28;20821;-77
2023/01/23 08:17:05;;;;;;;149.73;35.88;;;0.70;99.90;;;-0.64;100.00;98681.84;5042823;28;20430;-82
2023/01/23 08:19:32;;;;;;;189.05;37.88;;;0.70;99.90;;;-0.64;100.00;98666.25;5051652;28;20401;-77
2023/01/23 08:21:58;;;;;;;175.02;38.75;;;0.70;99.90;;;-0.59;100.00;98669.22;5050594;28;20494;-76
2023/01/23 08:24:24;;;;;;;163.53;36.80;;;0.70;99.90;;;-0.58;100.00;98671.69;5047289;28;20894;-77
2023/01/23 08:26:50;;;;;;;176.95;36.97;;;0.80;99.90;;;-0.57;100.00;98664.69;5051005;28;20436;-76
2023/01/23 08:29:16;;;;;;;194.38;41.13;;;0.80;99.90;;;-0.54;100.00;98672.22;5051301;28;20397;-76
2023/01/23 08:31:42;;;;;;;167.38;36.10;;;0.80;99.90;;;-0.54;100.00;98661.81;5051045;28;20895;-76
2023/01/23 08:34:08;;;;;;;162.07;35.28;;;0.80;99.90;;;-0.52;100.00;98681.47;5051005;28;20463;-77
2023/01/23 08:36:35;;;;;;;162.43;37.63;;;0.80;99.90;;;-0.44;100.00;98670.31;5049572;28;20456;-76
2023/01/23 08:39:01;;;;;;;145.90;37.03;;;0.90;99.90;;;-0.44;100.00;98676.34;5050372;28;20878;-77
2023/01/23 08:41:27;;;;;;;187.38;42.70;;;0.90;99.90;;;-0.46;100.00;98665.31;5051002;28;20409;-77
2023/01/23 08:43:53;;;;;;;196.50;42.90;;;0.80;99.90;;;-0.49;100.00;98668.19;5050672;28;20401;-77
2023/01/23 08:46:19;;;;;;;161.98;38.20;;;0.90;99.90;;;-0.49;100.00;98678.59;5050680;28;20425;-75
2023/01/23 08:48:45;;;;;;;159.15;37.67;;;0.80;99.90;;;-0.47;100.00;98666.25;5049551;28;20409;-77
2023/01/23 08:51:13;;;;;;;179.70;38.03;;;0.90;99.90;;;-0.46;100.00;98667.09;5050823;28;20412;-77
2023/01/23 08:53:40;;;;;;;182.40;40.20;;;0.90;99.90;;;-0.42;100.00;98666.63;5050526;28;20913;-78
2023/01/23 08:56:12;;;;;;;183.60;38.65;;;0.90;99.90;;;-0.39;100.00;98673.31;5050318;28;20421;-78
2023/01/23 08:58:38;;;;;;;161.20;36.38;;;0.90;99.90;;;-0.37;100.00;98660.97;5050764;28;20436;-78
2023/01/23 09:01:04;;;;;;;165.33;41.50;;;1.00;99.90;;;-0.34;100.00;98671.06;5046307;28;21575;-79
2023/01/23 09:03:32;;;;;;;177.15;41.17;;;1.00;99.90;;;-0.27;100.00;98666.91;5047390;28;22317;-76
2023/01/23 09:06:00;;;;;;;185.10;44.80;;;1.00;99.90;;;-0.31;100.00;98672.56;5050171;28;20898;-77
2023/01/23 09:08:26;;;;;;;172.38;42.65;;;1.00;99.90;;;-0.31;100.00;98675.16;5050545;28;20779;-76
2023/01/23 09:10:58;;;;;;;168.40;41.85;;;1.00;99.90;;;-0.31;100.00;98675.16;5050553;28;20401;-76
2023/01/23 09:13:23;;;;;;;160.88;36.38;;;1.00;99.90;;;-0.27;100.00;98664.31;5050318;28;20471;-76
2023/01/23 09:15:49;;;;;;;162.80;37.83;;;1.00;99.90;;;-0.22;100.00;98669.03;5050017;28;20413;-77
2023/01/23 09:18:17;;;;;;;158.60;37.83;;;1.10;99.90;;;-0.18;100.00;98675.59;5050187;28;20401;-75
2023/01/23 09:20:43;;;;;;;148.85;38.88;;;1.10;99.90;;;-0.13;100.00;98681.97;5050610;28;20405;-79
2023/01/23 09:23:09;;;;;;;144.50;41.00;;;1.10;99.90;;;-0.05;100.00;98681.22;5050679;28;20488;-78
2023/01/23 09:25:36;;;;;;;133.50;35.20;;;1.20;99.90;;;0.00;100.00;98666.75;5050264;28;20401;-77
2023/01/23 09:28:04;;;;;;;135.55;36.60;;;1.30;99.90;;;0.11;100.00;98681.31;5050217;28;20393;-77
2023/01/23 09:30:30;;;;;;;133.98;34.83;;;1.40;99.90;;;0.12;100.00;98687.34;5044411;28;20504;-77
2023/01/23 09:32:56;;;;;;;115.68;39.38;;;1.40;99.90;;;0.17;100.00;98670.28;5049370;28;20841;-77
2023/01/23 09:35:22;;;;;;;108.60;37.08;;;1.40;99.90;;;0.23;100.00;98672.28;5049952;28;20829;-78
2023/01/23 09:38:00;;;;;;;108.93;32.00;;;1.50;99.90;;;0.21;100.00;98676.03;5048744;28;20471;-78
2023/01/23 09:40:31;;;;;;;91.40;29.88;;;1.50;99.90;;;0.12;100.00;98674.34;5074790;28;20986;-78
2023/01/23 09:43:08;;;;;;;98.07;29.23;;;1.40;99.90;;;0.06;100.00;98674.94;5030289;28;20453;-76
2023/01/23 09:45:35;;;;;;;93.53;31.25;;;1.40;99.90;;;0.00;100.00;98687.59;5030295;28;20410;-76
2023/01/23 09:48:16;;;;;;;108.35;32.22;;;1.30;99.90;;;-0.06;100.00;98684.78;5036510;28;20440;-78
2023/01/23 09:50:53;;;;;;;104.80;35.92;;;1.20;99.90;;;-0.08;100.00;98686.75;5054203;28;20405;-77
2023/01/23 09:53:24;;;;;;;112.00;41.58;;;1.20;99.90;;;-0.12;100.00;98685.38;5054152;28;20408;-77
2023/01/23 09:55:58;;;;;;;83.78;31.65;;;1.20;99.90;;;-0.18;100.00;98692.03;5052621;28;20397;-79
2023/01/23 09:58:32;;;;;;;102.28;34.58;;;1.10;99.90;;;-0.16;100.00;98699.69;5054106;28;20471;-78
2023/01/23 10:00:58;;;;;;;83.47;30.55;;;1.10;99.90;;;-0.16;100.00;98695.31;5056974;28;20424;-81
2023/01/23 10:03:29;;;;;;;85.18;30.33;;;1.10;99.90;;;-0.17;100.00;98698.03;5053972;28;20401;-78
2023/01/23 10:06:10;;;;;;;83.00;31.23;;;1.10;99.90;;;-0.21;100.00;98694.91;5053416;28;20397;-82